createdAt,value
2018-05-19T00:01:15.532Z,9.70
2018-05-19T00:03:50.804Z,9.70
2018-05-19T00:06:26.044Z,9.70
2018-05-19T00:09:01.382Z,9.70
2018-05-19T00:11:36.488Z,9.60
2018-05-19T00:14:12.543Z,9.60
2018-05-19T00:16:47.637Z,9.50
2018-05-19T00:19:22.882Z,9.50
2018-05-19T00:21:58.220Z,9.60
2018-05-19T00:24:34.288Z,9.60
2018-05-19T00:27:10.247Z,9.60
2018-05-19T00:29:46.178Z,9.50
2018-05-19T00:32:22.120Z,9.50
2018-05-19T00:34:58.076Z,9.50
2018-05-19T00:37:33.197Z,9.50
2018-05-19T00:40:08.322Z,9.50
2018-05-19T00:42:43.588Z,9.50
2018-05-19T00:45:18.818Z,9.50
2018-05-19T00:47:54.730Z,9.40
2018-05-19T00:50:29.891Z,9.40
2018-05-19T00:53:05.167Z,9.40
2018-05-19T00:55:40.534Z,9.40
2018-05-19T00:58:15.867Z,9.40
2018-05-19T01:00:51.193Z,9.40
2018-05-19T01:03:26.458Z,9.30
2018-05-19T01:06:01.781Z,9.30
2018-05-19T01:08:37.102Z,9.30
2018-05-19T01:11:12.379Z,9.30
2018-05-19T01:13:47.495Z,9.30
2018-05-19T01:16:22.709Z,9.30
2018-05-19T01:18:57.943Z,9.20
2018-05-19T01:21:33.235Z,9.20
2018-05-19T01:24:09.388Z,9.20
2018-05-19T01:26:44.582Z,9.20
2018-05-19T01:29:19.859Z,9.20
2018-05-19T01:31:55.099Z,9.10
2018-05-19T01:34:30.376Z,9.10
2018-05-19T01:37:05.504Z,9.10
2018-05-19T01:39:41.442Z,9.00
2018-05-19T01:42:17.422Z,9.00
2018-05-19T01:44:52.524Z,9.00
2018-05-19T01:47:27.744Z,9.00
2018-05-19T01:50:03.604Z,8.90
2018-05-19T01:52:38.743Z,8.90
2018-05-19T01:55:13.981Z,8.90
2018-05-19T01:57:49.201Z,8.90
2018-05-19T02:00:24.436Z,8.90
2018-05-19T02:02:59.688Z,8.90
2018-05-19T02:05:34.929Z,8.90
2018-05-19T02:08:11.042Z,8.90
2018-05-19T02:10:46.116Z,8.80
2018-05-19T02:13:21.334Z,8.80
2018-05-19T02:15:56.400Z,8.80
2018-05-19T02:18:32.439Z,8.80
2018-05-19T02:21:08.411Z,8.80
2018-05-19T02:23:43.655Z,8.80
2018-05-19T02:26:18.924Z,8.80
2018-05-19T02:28:54.898Z,8.70
2018-05-19T02:31:29.996Z,8.70
2018-05-19T02:34:05.268Z,8.70
2018-05-19T02:36:40.481Z,8.70
2018-05-19T02:39:15.734Z,8.70
2018-05-19T02:41:50.975Z,8.60
2018-05-19T02:44:26.193Z,8.60
2018-05-19T02:47:02.087Z,8.60
2018-05-19T02:49:37.203Z,8.60
2018-05-19T02:52:12.344Z,8.60
2018-05-19T02:54:47.595Z,8.60
2018-05-19T02:57:22.871Z,8.60
2018-05-19T02:59:58.080Z,8.50
2018-05-19T03:02:33.637Z,8.50
2018-05-19T03:05:08.903Z,8.50
2018-05-19T03:07:44.147Z,8.40
2018-05-19T03:10:19.412Z,8.40
2018-05-19T03:12:54.762Z,8.40
2018-05-19T03:15:30.120Z,8.30
2018-05-19T03:18:05.525Z,8.30
2018-05-19T03:20:41.499Z,8.30
2018-05-19T03:23:16.677Z,8.30
2018-05-19T03:25:52.676Z,8.20
2018-05-19T03:28:27.837Z,8.20
2018-05-19T03:31:03.186Z,8.30
2018-05-19T03:33:38.451Z,8.30
2018-05-19T03:36:14.585Z,8.30
2018-05-19T03:38:49.738Z,8.30
2018-05-19T03:41:24.968Z,8.20
2018-05-19T03:44:00.079Z,8.20
2018-05-19T03:46:35.355Z,8.20
2018-05-19T03:49:10.487Z,8.20
2018-05-19T03:51:46.522Z,8.10
2018-05-19T03:54:21.824Z,8.10
2018-05-19T03:57:14.879Z,8.10
2018-05-19T04:00:07.757Z,8.10
2018-05-19T04:02:42.933Z,8.10
2018-05-19T04:05:18.209Z,8.10
2018-05-19T04:07:53.375Z,8.10
2018-05-19T04:10:28.497Z,8.10
2018-05-19T04:13:04.482Z,8.10
2018-05-19T04:15:39.666Z,8.10
2018-05-19T04:18:14.913Z,8.20
2018-05-19T04:20:50.196Z,8.20
2018-05-19T04:23:25.426Z,8.20
2018-05-19T04:26:00.762Z,8.20
2018-05-19T04:28:36.029Z,8.30
2018-05-19T04:31:11.224Z,8.20
2018-05-19T04:33:46.515Z,8.30
2018-05-19T04:36:21.809Z,8.30
2018-05-19T04:38:57.011Z,8.30
2018-05-19T04:41:32.276Z,8.30
2018-05-19T04:44:07.538Z,8.40
2018-05-19T04:46:42.942Z,8.40
2018-05-19T04:49:18.067Z,8.40
2018-05-19T04:51:53.180Z,8.50
2018-05-19T04:54:29.205Z,8.50
2018-05-19T04:57:05.120Z,8.50
2018-05-19T04:59:40.268Z,8.50
2018-05-19T05:02:15.539Z,8.60
2018-05-19T05:04:50.776Z,8.60
2018-05-19T05:07:26.012Z,8.70
2018-05-19T05:10:01.255Z,8.80
2018-05-19T05:12:37.117Z,8.90
2018-05-19T05:15:12.273Z,8.90
2018-05-19T05:17:48.115Z,9.00
2018-05-19T05:20:23.408Z,9.00
2018-05-19T05:22:59.330Z,9.10
2018-05-19T05:25:35.297Z,9.10
2018-05-19T05:28:10.462Z,9.10
2018-05-19T05:30:45.840Z,9.20
2018-05-19T05:33:21.104Z,9.40
2018-05-19T05:35:56.498Z,9.60
2018-05-19T05:38:31.632Z,9.80
2018-05-19T05:41:06.763Z,10.00
2018-05-19T05:43:41.868Z,10.10
2018-05-19T05:46:17.829Z,10.70
2018-05-19T05:48:53.040Z,10.70
2018-05-19T05:51:28.329Z,10.90
2018-05-19T05:54:03.453Z,11.10
2018-05-19T05:56:38.805Z,11.10
2018-05-19T05:59:14.123Z,11.20
2018-05-19T06:01:49.306Z,11.30
2018-05-19T06:04:24.606Z,11.40
2018-05-19T06:07:00.651Z,11.80
2018-05-19T06:09:35.778Z,11.80
2018-05-19T06:12:11.120Z,12.00
2018-05-19T06:14:46.330Z,12.30
2018-05-19T06:17:21.470Z,12.80
2018-05-19T06:19:56.784Z,13.30
2018-05-19T06:22:31.946Z,13.60
2018-05-19T06:25:07.234Z,13.80
2018-05-19T06:27:42.469Z,14.00
2018-05-19T06:30:17.792Z,14.30
2018-05-19T06:32:52.958Z,14.50
2018-05-19T06:35:28.173Z,14.80
2018-05-19T06:38:03.334Z,15.10
2018-05-19T06:40:39.307Z,15.00
2018-05-19T06:43:15.364Z,15.30
2018-05-19T06:45:50.469Z,15.30
2018-05-19T06:48:25.720Z,15.50
2018-05-19T06:51:00.875Z,15.70
2018-05-19T06:53:36.808Z,15.50
2018-05-19T06:56:11.994Z,15.50
2018-05-19T06:58:48.142Z,15.50
2018-05-19T07:01:23.331Z,15.70
2018-05-19T07:03:58.606Z,16.00
2018-05-19T07:06:33.917Z,16.00
2018-05-19T07:09:09.020Z,15.90
2018-05-19T07:11:44.321Z,15.90
2018-05-19T07:14:19.505Z,16.10
2018-05-19T07:16:54.700Z,16.20
2018-05-19T07:19:30.617Z,16.30
2018-05-19T07:22:05.797Z,16.30
2018-05-19T07:24:41.077Z,16.70
2018-05-19T07:27:16.379Z,17.00
2018-05-19T07:29:51.600Z,17.30
2018-05-19T07:32:26.911Z,17.50
2018-05-19T07:35:02.309Z,17.70
2018-05-19T07:37:38.337Z,18.20
2018-05-19T07:40:13.655Z,18.20
2018-05-19T07:42:49.682Z,18.10
2018-05-19T07:45:24.841Z,18.10
2018-05-19T07:47:59.972Z,18.50
2018-05-19T07:50:35.071Z,18.40
2018-05-19T07:53:11.072Z,18.50
2018-05-19T07:55:46.310Z,18.40
2018-05-19T07:58:22.298Z,18.80
2018-05-19T08:00:58.320Z,18.70
2018-05-19T08:03:33.565Z,18.70
2018-05-19T08:06:08.813Z,19.00
2018-05-19T08:08:43.893Z,19.40
2018-05-19T08:11:18.980Z,19.60
2018-05-19T08:13:54.375Z,19.60
2018-05-19T08:16:30.229Z,19.90
2018-05-19T08:19:05.424Z,19.90
2018-05-19T08:21:40.570Z,20.20
2018-05-19T08:24:15.636Z,20.10
2018-05-19T08:26:51.592Z,20.10
2018-05-19T08:29:27.421Z,20.60
2018-05-19T08:32:03.290Z,20.90
2018-05-19T08:34:38.400Z,20.90
2018-05-19T08:37:13.660Z,20.80
2018-05-19T08:39:49.619Z,20.10
2018-05-19T08:42:24.832Z,20.10
2018-05-19T08:44:59.968Z,20.40
2018-05-19T08:47:35.087Z,20.70
2018-05-19T08:50:10.353Z,20.80
2018-05-19T08:52:45.633Z,20.70
2018-05-19T08:55:21.591Z,20.50
2018-05-19T08:57:57.542Z,20.30
2018-05-19T09:00:33.461Z,20.00
2018-05-19T09:03:08.755Z,19.90
2018-05-19T09:05:43.948Z,20.10
2018-05-19T09:08:19.126Z,20.30
2018-05-19T09:10:54.451Z,20.10
2018-05-19T09:13:30.395Z,19.50
2018-05-19T09:16:05.604Z,19.40
2018-05-19T09:18:40.804Z,19.30
2018-05-19T09:21:16.699Z,19.50
2018-05-19T09:23:52.590Z,19.70
2018-05-19T09:26:27.708Z,19.70
2018-05-19T09:29:03.049Z,20.20
2018-05-19T09:31:38.305Z,20.50
2018-05-19T09:34:14.284Z,20.90
2018-05-19T09:36:50.048Z,20.90
2018-05-19T09:39:25.996Z,20.20
2018-05-19T09:42:02.037Z,20.20
2018-05-19T09:44:37.385Z,20.10
2018-05-19T09:47:13.386Z,19.80
2018-05-19T09:49:48.548Z,19.80
2018-05-19T09:52:23.815Z,19.50
2018-05-19T09:54:58.988Z,19.70
2018-05-19T09:57:34.913Z,19.30
2018-05-19T10:00:10.179Z,19.20
2018-05-19T10:02:45.329Z,19.30
2018-05-19T10:05:21.255Z,19.70
2018-05-19T10:07:56.576Z,19.70
2018-05-19T10:10:31.718Z,19.80
2018-05-19T10:13:06.836Z,19.90
2018-05-19T10:15:42.187Z,20.10
2018-05-19T10:18:17.496Z,20.20
2018-05-19T10:20:52.765Z,20.30
2018-05-19T10:23:28.038Z,20.10
2018-05-19T10:26:03.094Z,20.20
2018-05-19T10:28:38.429Z,20.20
2018-05-19T10:31:13.568Z,20.50
2018-05-19T10:33:48.859Z,20.80
2018-05-19T10:36:24.063Z,20.90
2018-05-19T10:38:59.419Z,20.20
2018-05-19T10:41:34.740Z,20.10
2018-05-19T10:44:10.001Z,20.20
2018-05-19T10:46:45.105Z,20.50
2018-05-19T10:49:20.409Z,20.70
2018-05-19T10:51:56.327Z,21.10
2018-05-19T10:54:31.671Z,21.00
2018-05-19T10:57:06.906Z,21.40
2018-05-19T10:59:42.125Z,22.00
2018-05-19T11:02:18.008Z,22.60
2018-05-19T11:04:53.271Z,22.50
2018-05-19T11:07:28.381Z,22.70
2018-05-19T11:10:03.649Z,22.80
2018-05-19T11:12:38.797Z,22.70
2018-05-19T11:15:14.139Z,22.50
2018-05-19T11:17:49.275Z,22.40
2018-05-19T11:20:25.236Z,22.50
2018-05-19T11:23:00.318Z,22.50
2018-05-19T11:25:35.707Z,22.40
2018-05-19T11:28:10.814Z,22.10
2018-05-19T11:30:46.089Z,21.80
2018-05-19T11:33:21.796Z,22.10
2018-05-19T11:35:57.080Z,21.90
2018-05-19T11:38:32.229Z,22.00
2018-05-19T11:41:07.295Z,22.20
2018-05-19T11:43:42.622Z,22.30
2018-05-19T11:46:17.805Z,22.40
2018-05-19T11:48:53.139Z,22.50
2018-05-19T11:51:28.370Z,22.10
2018-05-19T11:54:04.321Z,21.90
2018-05-19T11:56:39.606Z,21.90
2018-05-19T11:59:14.793Z,22.00
2018-05-19T12:01:50.069Z,22.10
2018-05-19T12:04:25.205Z,22.30
2018-05-19T12:07:01.050Z,22.60
2018-05-19T12:12:18.311Z,22.50
2018-05-19T12:14:54.267Z,22.40
2018-05-19T12:17:30.213Z,22.30
2018-05-19T12:20:05.386Z,22.20
2018-05-19T12:22:41.420Z,22.00
2018-05-19T12:25:17.270Z,22.00
2018-05-19T12:27:53.580Z,21.80
2018-05-19T12:30:28.677Z,21.70
2018-05-19T12:33:03.954Z,21.70
2018-05-19T12:35:39.118Z,21.80
2018-05-19T12:38:14.479Z,21.90
2018-05-19T12:40:49.725Z,21.90
2018-05-19T12:43:24.855Z,22.10
2018-05-19T12:46:00.825Z,22.20
2018-05-19T12:48:35.944Z,22.20
2018-05-19T12:51:12.008Z,22.30
2018-05-19T12:53:48.012Z,22.20
2018-05-19T12:56:23.253Z,22.20
2018-05-19T12:58:59.142Z,21.80
2018-05-19T13:01:34.278Z,21.80
2018-05-19T13:04:09.654Z,21.80
2018-05-19T13:06:44.844Z,21.80
2018-05-19T13:09:20.024Z,21.80
2018-05-19T13:11:55.296Z,21.80
2018-05-19T13:14:30.490Z,21.70
2018-05-19T13:17:06.321Z,21.40
2018-05-19T13:19:41.473Z,21.40
2018-05-19T13:22:19.776Z,21.30
2018-05-19T13:24:55.081Z,21.40
2018-05-19T13:27:30.979Z,21.30
2018-05-19T13:30:06.309Z,21.20
2018-05-19T13:32:42.304Z,21.10
2018-05-19T13:35:18.661Z,21.00
2018-05-19T13:37:53.813Z,21.00
2018-05-19T13:40:29.150Z,21.30
2018-05-19T13:43:04.277Z,21.30
2018-05-19T13:45:39.619Z,21.30
2018-05-19T13:48:14.866Z,21.40
2018-05-19T13:50:50.816Z,20.90
2018-05-19T13:53:26.769Z,21.10
2018-05-19T13:56:01.976Z,21.10
2018-05-19T13:58:37.213Z,21.10
2018-05-19T14:01:13.271Z,21.20
2018-05-19T14:03:48.347Z,21.20
2018-05-19T14:06:23.684Z,21.00
2018-05-19T14:08:58.892Z,20.90
2018-05-19T14:11:34.263Z,20.90
2018-05-19T14:14:09.480Z,20.80
2018-05-19T14:16:44.752Z,20.80
2018-05-19T14:19:19.937Z,20.70
2018-05-19T14:21:55.203Z,20.70
2018-05-19T14:24:30.442Z,20.70
2018-05-19T14:27:05.774Z,20.50
2018-05-19T14:29:41.124Z,20.40
2018-05-19T14:32:16.428Z,20.40
2018-05-19T14:34:51.704Z,20.40
2018-05-19T14:37:27.053Z,20.40
2018-05-19T14:40:02.391Z,20.30
2018-05-19T14:42:37.718Z,20.20
2018-05-19T14:45:13.022Z,20.10
2018-05-19T14:47:48.284Z,20.10
2018-05-19T14:50:24.544Z,20.00
2018-05-19T14:53:00.458Z,20.00
2018-05-19T14:55:35.466Z,20.00
2018-05-19T14:58:10.748Z,20.00
2018-05-19T15:00:45.993Z,20.00
2018-05-19T15:03:21.111Z,20.00
2018-05-19T15:05:56.205Z,19.80
2018-05-19T15:08:31.449Z,19.70
2018-05-19T15:11:06.677Z,19.80
2018-05-19T15:13:43.489Z,19.80
2018-05-19T15:16:18.569Z,19.80
2018-05-19T15:18:55.204Z,19.90
2018-05-19T15:21:30.430Z,19.90
2018-05-19T15:24:06.353Z,19.90
2018-05-19T15:26:41.512Z,19.90
2018-05-19T15:29:16.841Z,19.80
2018-05-19T15:31:52.119Z,19.90
2018-05-19T15:34:27.369Z,19.90
2018-05-19T15:37:02.731Z,19.90
2018-05-19T15:39:38.685Z,19.90
2018-05-19T15:42:13.980Z,19.90
2018-05-19T15:44:49.341Z,19.80
2018-05-19T15:47:24.473Z,19.90
2018-05-19T15:50:00.393Z,19.80
2018-05-19T15:52:36.388Z,19.70
2018-05-19T15:55:12.692Z,19.70
2018-05-19T15:57:48.023Z,19.60
2018-05-19T16:00:23.116Z,19.70
2018-05-19T16:02:59.169Z,19.50
2018-05-19T16:05:34.272Z,19.50
2018-05-19T16:08:09.596Z,19.50
2018-05-19T16:10:45.588Z,19.50
2018-05-19T16:13:21.537Z,19.50
2018-05-19T16:15:56.685Z,19.40
2018-05-19T16:18:31.793Z,19.50
2018-05-19T16:21:07.065Z,19.40
2018-05-19T16:23:42.222Z,19.30
2018-05-19T16:26:17.583Z,19.30
2018-05-19T16:28:52.690Z,19.20
2018-05-19T16:31:28.066Z,19.20
2018-05-19T16:34:03.138Z,19.30
2018-05-19T16:36:38.583Z,19.20
2018-05-19T16:39:14.453Z,19.10
2018-05-19T16:41:49.864Z,19.10
2018-05-19T16:44:25.130Z,19.10
2018-05-19T16:47:00.336Z,19.00
2018-05-19T16:49:35.652Z,19.00
2018-05-19T16:52:10.898Z,19.00
2018-05-19T16:54:46.005Z,18.90
2018-05-19T16:57:21.348Z,18.90
2018-05-19T16:59:56.574Z,18.90
2018-05-19T17:02:33.007Z,18.70
2018-05-19T17:05:08.292Z,18.70
2018-05-19T17:07:43.536Z,18.60
2018-05-19T17:10:18.799Z,18.60
2018-05-19T17:12:54.137Z,18.60
2018-05-19T17:15:29.269Z,18.60
2018-05-19T17:18:04.517Z,18.50
2018-05-19T17:20:39.726Z,18.40
2018-05-19T17:23:14.971Z,18.40
2018-05-19T17:25:50.093Z,18.30
2018-05-19T17:28:25.357Z,18.30
2018-05-19T17:31:00.601Z,18.30
2018-05-19T17:33:36.546Z,18.20
2018-05-19T17:36:11.642Z,18.20
2018-05-19T17:38:46.898Z,18.10
2018-05-19T17:41:23.604Z,18.10
2018-05-19T17:43:58.824Z,18.00
2018-05-19T17:46:34.082Z,18.10
2018-05-19T17:49:10.009Z,17.90
2018-05-19T17:51:45.947Z,17.80
2018-05-19T17:54:21.023Z,17.80
2018-05-19T17:56:56.993Z,17.70
2018-05-19T17:59:32.315Z,17.70
2018-05-19T18:02:07.661Z,17.70
2018-05-19T18:04:42.860Z,17.70
2018-05-19T18:07:18.381Z,17.60
2018-05-19T18:09:53.504Z,17.50
2018-05-19T18:12:28.782Z,17.50
2018-05-19T18:15:04.780Z,17.40
2018-05-19T18:17:39.908Z,17.40
2018-05-19T18:20:15.258Z,17.40
2018-05-19T18:22:50.493Z,17.30
2018-05-19T18:25:25.813Z,17.30
2018-05-19T18:28:01.091Z,17.20
2018-05-19T18:30:36.422Z,17.20
2018-05-19T18:33:11.758Z,17.20
2018-05-19T18:35:47.079Z,17.10
2018-05-19T18:38:22.370Z,17.00
2018-05-19T18:40:57.654Z,16.90
2018-05-19T18:43:32.968Z,16.90
2018-05-19T18:46:08.055Z,16.80
2018-05-19T18:48:43.315Z,16.80
2018-05-19T18:51:18.611Z,16.70
2018-05-19T18:53:53.885Z,16.70
2018-05-19T18:56:29.868Z,16.50
2018-05-19T18:59:05.019Z,16.50
2018-05-19T19:01:40.933Z,16.40
2018-05-19T19:04:16.028Z,16.30
2018-05-19T19:06:51.171Z,16.40
2018-05-19T19:09:27.057Z,16.20
2018-05-19T19:12:02.933Z,16.20
2018-05-19T19:14:38.088Z,16.20
2018-05-19T19:17:13.342Z,16.10
2018-05-19T19:19:48.608Z,16.10
2018-05-19T19:22:23.860Z,16.10
2018-05-19T19:24:59.724Z,16.00
2018-05-19T19:27:34.873Z,16.00
2018-05-19T19:30:10.130Z,15.90
2018-05-19T19:32:46.185Z,15.80
2018-05-19T19:35:22.152Z,15.80
2018-05-19T19:37:58.069Z,15.80
2018-05-19T19:40:34.113Z,15.70
2018-05-19T19:43:09.274Z,15.70
2018-05-19T19:45:44.512Z,15.70
2018-05-19T19:48:19.852Z,15.60
2018-05-19T19:50:55.152Z,15.60
2018-05-19T19:53:30.429Z,15.50
2018-05-19T19:56:05.640Z,15.50
2018-05-19T19:58:41.556Z,15.40
2018-05-19T20:01:16.846Z,15.40
2018-05-19T20:03:52.122Z,15.30
2018-05-19T20:06:27.443Z,15.30
2018-05-19T20:09:02.752Z,15.20
2018-05-19T20:11:37.890Z,15.20
2018-05-19T20:14:13.186Z,15.10
2018-05-19T20:16:49.025Z,15.00
2018-05-19T20:19:24.163Z,15.00
2018-05-19T20:22:00.244Z,14.90
2018-05-19T20:24:35.369Z,14.90
2018-05-19T20:27:10.704Z,14.80
2018-05-19T20:29:46.576Z,14.80
2018-05-19T20:32:22.490Z,14.70
2018-05-19T20:34:58.494Z,14.70
2018-05-19T20:37:33.855Z,14.70
2018-05-19T20:40:08.964Z,14.70
2018-05-19T20:42:44.045Z,14.70
2018-05-19T20:45:19.956Z,14.50
2018-05-19T20:47:55.085Z,14.40
2018-05-19T20:50:30.407Z,14.40
2018-05-19T20:53:05.762Z,14.40
2018-05-19T20:55:40.969Z,14.40
2018-05-19T20:58:16.861Z,14.40
2018-05-19T21:00:51.964Z,14.40
2018-05-19T21:03:27.151Z,14.40
2018-05-19T21:06:02.371Z,14.40
2018-05-19T21:08:37.739Z,14.40
2018-05-19T21:11:12.909Z,14.30
2018-05-19T21:13:48.178Z,14.30
2018-05-19T21:16:23.474Z,14.30
2018-05-19T21:18:59.499Z,14.20
2018-05-19T21:21:34.676Z,14.20
2018-05-19T21:24:10.684Z,14.10
2018-05-19T21:26:45.780Z,14.10
2018-05-19T21:29:21.111Z,14.10
2018-05-19T21:31:57.040Z,14.00
2018-05-19T21:34:32.964Z,14.00
2018-05-19T21:37:08.964Z,14.00
2018-05-19T21:39:44.092Z,13.90
2018-05-19T21:42:19.265Z,14.00
2018-05-19T21:44:54.503Z,14.00
2018-05-19T21:47:29.743Z,13.90
2018-05-19T21:50:05.658Z,13.90
2018-05-19T21:52:41.576Z,14.00
2018-05-19T21:55:16.793Z,13.90
2018-05-19T21:57:51.885Z,13.90
2018-05-19T22:00:27.063Z,13.90
2018-05-19T22:03:02.970Z,13.90
2018-05-19T22:05:38.981Z,13.90
2018-05-19T22:08:14.235Z,13.90
2018-05-19T22:10:50.216Z,13.90
2018-05-19T22:13:26.151Z,13.80
2018-05-19T22:16:01.257Z,13.80
2018-05-19T22:18:37.233Z,13.70
2018-05-19T22:21:13.251Z,13.70
2018-05-19T22:23:48.378Z,13.70
2018-05-19T22:26:23.689Z,13.70
2018-05-19T22:28:58.942Z,13.60
2018-05-19T22:31:34.243Z,13.60
2018-05-19T22:34:09.495Z,13.60
2018-05-19T22:36:44.740Z,13.60
2018-05-19T22:39:20.061Z,13.60
2018-05-19T22:41:55.381Z,13.50
2018-05-19T22:44:30.823Z,13.50
2018-05-19T22:47:06.889Z,13.40
2018-05-19T22:49:42.085Z,13.30
2018-05-19T22:52:17.256Z,13.30
2018-05-19T22:54:52.560Z,13.30
2018-05-19T22:57:27.904Z,13.30
2018-05-19T23:00:03.872Z,13.20
2018-05-19T23:02:39.831Z,13.20
2018-05-19T23:05:14.977Z,13.10
2018-05-19T23:07:50.921Z,13.10
2018-05-19T23:10:26.871Z,13.10
2018-05-19T23:13:02.693Z,13.10
2018-05-19T23:15:38.570Z,13.10
2018-05-19T23:18:13.825Z,13.10
2018-05-19T23:20:49.854Z,13.10
2018-05-19T23:23:25.817Z,13.00
2018-05-19T23:26:01.105Z,13.00
2018-05-19T23:28:36.991Z,13.00
2018-05-19T23:31:12.988Z,13.00
2018-05-19T23:33:48.101Z,12.90
2018-05-19T23:36:23.287Z,13.00
2018-05-19T23:38:58.450Z,12.90
2018-05-19T23:41:33.758Z,12.90
2018-05-19T23:44:09.034Z,12.80
2018-05-19T23:46:44.296Z,12.80
2018-05-19T23:49:20.408Z,12.70
2018-05-19T23:51:55.566Z,12.70
2018-05-19T23:54:30.805Z,12.70
2018-05-19T23:57:05.966Z,12.70
2018-05-19T23:59:41.107Z,12.60
